Time;durP1;ratioP1;P1;durP2;ratioP2;P2;SDS_P1;SDS_P2;PMS_P1;PMS_P2;Temp;Humidity;BMP_temperature;BMP_pressure;BME280_temperature;BME280_humidity;BME280_pressure;Samples;Min_cycle;Max_cycle;Signal;HPM_P1;HPM_P2
2023/07/13 00:00:25;;;;;;;1.93;0.87;;;19.70;65.90;;;;;;4964229;28;20023;-19
2023/07/13 00:02:53;;;;;;;3.25;0.80;;;19.70;66.00;;;;;;4957071;28;20125;-20
2023/07/13 00:05:22;;;;;;;0.93;0.80;;;19.60;66.10;;;;;;4977769;28;20224;-19
2023/07/13 00:07:52;;;;;;;1.70;0.63;;;19.60;66.20;;;;;;4954629;28;20062;-20
2023/07/13 00:10:18;;;;;;;1.75;0.80;;;19.60;66.30;;;;;;4947518;28;20152;-20
2023/07/13 00:12:44;;;;;;;1.33;0.80;;;19.50;66.30;;;;;;4974702;28;20030;-19
2023/07/13 00:15:16;;;;;;;1.95;1.00;;;19.50;66.50;;;;;;4953727;28;20289;-19
2023/07/13 00:17:44;;;;;;;2.17;0.90;;;19.50;66.70;;;;;;4967710;28;20040;-20
2023/07/13 00:20:11;;;;;;;2.28;1.00;;;19.50;66.70;;;;;;4982095;28;20244;-19
2023/07/13 00:22:37;;;;;;;2.23;0.70;;;19.40;66.70;;;;;;4963363;28;20049;-20
2023/07/13 00:25:03;;;;;;;3.45;0.88;;;19.40;66.80;;;;;;4928814;28;20546;-20
2023/07/13 00:27:31;;;;;;;2.30;0.93;;;19.40;67.10;;;;;;4963756;28;20031;-20
2023/07/13 00:29:58;;;;;;;3.75;0.75;;;19.30;67.10;;;;;;4974212;28;20395;-20
2023/07/13 00:32:27;;;;;;;1.85;0.80;;;19.30;67.20;;;;;;4963013;28;20714;-19
2023/07/13 00:34:53;;;;;;;3.13;0.80;;;19.30;67.30;;;;;;4974520;28;20039;-20
2023/07/13 00:37:19;;;;;;;1.42;0.75;;;19.30;67.30;;;;;;4962157;28;20027;-20
2023/07/13 00:39:45;;;;;;;2.35;0.77;;;19.20;67.30;;;;;;4952594;28;20023;-20
2023/07/13 00:42:11;;;;;;;2.90;1.00;;;19.20;67.40;;;;;;4946944;28;20034;-19
2023/07/13 00:44:39;;;;;;;2.35;0.80;;;19.20;67.50;;;;;;4966661;28;20486;-19
2023/07/13 00:47:05;;;;;;;2.17;0.73;;;19.10;67.70;;;;;;4963374;28;20019;-20
2023/07/13 00:49:33;;;;;;;1.45;0.73;;;19.10;67.80;;;;;;4983808;28;20027;-19
2023/07/13 00:52:08;;;;;;;2.50;0.93;;;19.10;67.90;;;;;;4964948;28;20034;-20
2023/07/13 00:54:39;;;;;;;2.20;0.80;;;19.10;68.60;;;;;;4949888;28;20532;-19
2023/07/13 00:57:09;;;;;;;2.92;0.70;;;19.10;68.40;;;;;;4923966;28;20035;-19
2023/07/13 00:59:36;;;;;;;2.53;0.80;;;19.00;68.00;;;;;;4980218;28;20057;-20
2023/07/13 01:02:03;;;;;;;2.50;0.80;;;19.00;68.40;;;;;;4964086;28;20039;-19
2023/07/13 01:04:29;;;;;;;3.97;0.90;;;19.00;68.60;;;;;;4966551;28;20292;-19
2023/07/13 01:06:56;;;;;;;3.45;0.80;;;19.00;68.60;;;;;;4965724;28;20113;-20
2023/07/13 01:09:22;;;;;;;2.65;0.70;;;18.90;68.70;;;;;;4969356;28;20030;-19
2023/07/13 01:11:49;;;;;;;2.40;0.82;;;18.90;68.80;;;;;;4948388;28;20035;-21
2023/07/13 01:14:16;;;;;;;1.73;0.90;;;18.90;68.90;;;;;;4956194;28;20030;-19
2023/07/13 01:16:44;;;;;;;1.63;0.73;;;18.80;68.90;;;;;;4963259;28;20022;-19
2023/07/13 01:19:35;;;;;;;2.58;0.90;;;18.80;69.10;;;;;;4961665;28;20377;-20
2023/07/13 01:22:08;;;;;;;2.65;0.95;;;18.80;70.00;;;;;;4977970;28;20126;-19
2023/07/13 01:24:36;;;;;;;2.28;1.00;;;18.80;69.20;;;;;;4981606;28;20026;-20
2023/07/13 01:27:03;;;;;;;2.55;0.85;;;18.80;69.30;;;;;;4939507;28;20408;-20
2023/07/13 01:29:31;;;;;;;3.60;1.00;;;18.70;69.50;;;;;;4982779;28;20524;-20
2023/07/13 01:31:56;;;;;;;2.13;0.80;;;18.70;69.70;;;;;;4961759;28;20667;-19
2023/07/13 01:34:22;;;;;;;2.47;0.90;;;18.70;69.90;;;;;;4964469;28;20042;-20
2023/07/13 01:36:48;;;;;;;1.67;0.80;;;18.70;70.00;;;;;;4966525;28;20026;-20
2023/07/13 01:39:15;;;;;;;2.05;0.80;;;18.70;70.00;;;;;;4968508;28;20514;-19
2023/07/13 01:41:41;;;;;;;3.38;0.90;;;18.70;70.20;;;;;;4951248;28;20105;-19
2023/07/13 01:44:07;;;;;;;2.77;0.80;;;18.70;70.20;;;;;;4924721;28;20133;-20
2023/07/13 01:46:32;;;;;;;1.65;0.80;;;18.70;70.30;;;;;;4956020;28;20065;-20
2023/07/13 01:48:58;;;;;;;2.20;0.90;;;18.70;70.40;;;;;;4967028;28;20011;-20
2023/07/13 01:51:24;;;;;;;2.38;0.73;;;18.70;70.40;;;;;;4958187;28;20026;-20
2023/07/13 01:53:50;;;;;;;1.50;0.80;;;18.70;70.40;;;;;;4966050;28;20026;-19
2023/07/13 01:56:15;;;;;;;2.63;0.90;;;18.70;70.40;;;;;;4978752;28;20023;-20
2023/07/13 01:58:41;;;;;;;1.87;0.73;;;18.70;70.40;;;;;;4938426;28;20026;-20
2023/07/13 02:01:07;;;;;;;2.50;1.00;;;18.70;70.60;;;;;;4951022;28;20053;-21
2023/07/13 02:03:32;;;;;;;1.83;0.90;;;18.70;70.70;;;;;;4955168;28;20030;-19
2023/07/13 02:05:58;;;;;;;2.97;0.90;;;18.60;70.90;;;;;;4964366;28;20022;-20
2023/07/13 02:08:24;;;;;;;2.37;0.83;;;18.60;71.00;;;;;;4935086;28;20026;-20
2023/07/13 02:10:49;;;;;;;3.50;0.90;;;18.60;71.20;;;;;;4967013;28;20160;-20
2023/07/13 02:13:15;;;;;;;1.23;0.70;;;18.70;71.40;;;;;;4946586;28;20523;-20
2023/07/13 02:15:41;;;;;;;2.30;1.00;;;18.70;71.50;;;;;;4954844;28;20232;-20
2023/07/13 02:18:06;;;;;;;3.53;0.87;;;18.70;71.50;;;;;;4946748;28;20034;-20
2023/07/13 02:20:32;;;;;;;2.42;0.88;;;18.70;71.80;;;;;;4952773;28;23220;-20
2023/07/13 02:22:58;;;;;;;2.13;0.70;;;18.70;72.00;;;;;;4967960;28;20038;-20
2023/07/13 02:25:25;;;;;;;2.90;1.00;;;18.70;72.00;;;;;;4959223;28;20377;-20
2023/07/13 02:27:50;;;;;;;2.72;0.98;;;18.70;72.20;;;;;;4978177;28;20061;-20
2023/07/13 02:30:16;;;;;;;2.53;1.00;;;18.80;72.30;;;;;;4931160;28;20030;-21
2023/07/13 02:32:43;;;;;;;3.70;0.98;;;18.80;72.40;;;;;;4966103;28;20042;-20
2023/07/13 02:35:09;;;;;;;4.03;1.17;;;18.80;72.30;;;;;;4954569;28;20109;-21
2023/07/13 02:37:35;;;;;;;3.13;1.10;;;18.90;72.50;;;;;;4959938;28;20045;-20
2023/07/13 02:40:01;;;;;;;2.40;0.90;;;18.90;72.50;;;;;;4962555;28;20402;-20
2023/07/13 02:42:26;;;;;;;2.55;0.90;;;18.90;72.50;;;;;;4961336;28;20741;-20
2023/07/13 02:44:52;;;;;;;4.03;1.00;;;18.90;72.60;;;;;;4932734;28;20042;-19
2023/07/13 02:47:18;;;;;;;2.97;1.13;;;18.90;72.60;;;;;;4980096;28;20041;-20
2023/07/13 02:49:44;;;;;;;1.60;0.83;;;19.00;72.80;;;;;;4953272;28;20112;-20
2023/07/13 02:52:09;;;;;;;3.08;0.95;;;19.00;72.80;;;;;;4948060;28;20126;-20
2023/07/13 02:54:35;;;;;;;4.50;1.00;;;19.00;72.80;;;;;;4957871;28;20179;-19
2023/07/13 02:57:01;;;;;;;3.42;1.35;;;19.00;72.80;;;;;;4968504;28;20980;-19
2023/07/13 02:59:26;;;;;;;2.33;1.00;;;19.00;73.00;;;;;;4935185;28;20034;-19
2023/07/13 03:01:52;;;;;;;2.40;1.10;;;18.90;73.00;;;;;;4962202;28;20050;-19
2023/07/13 03:04:20;;;;;;;2.87;1.00;;;18.90;73.00;;;;;;4961698;28;20054;-20
2023/07/13 03:06:46;;;;;;;2.28;0.90;;;19.00;73.30;;;;;;4957488;28;20720;-19
2023/07/13 03:09:12;;;;;;;3.38;0.90;;;19.00;73.20;;;;;;4964864;28;20736;-20
2023/07/13 03:11:38;;;;;;;1.73;0.98;;;19.00;73.30;;;;;;4960684;28;20540;-20
2023/07/13 03:14:04;;;;;;;3.93;0.90;;;19.00;73.30;;;;;;4963948;28;20049;-20
2023/07/13 03:16:30;;;;;;;2.90;1.02;;;19.00;73.50;;;;;;4933515;28;20177;-19
2023/07/13 03:18:55;;;;;;;2.90;0.90;;;19.00;73.40;;;;;;4978007;28;20049;-20
2023/07/13 03:21:21;;;;;;;3.85;1.17;;;19.00;73.50;;;;;;4945569;28;20429;-20
2023/07/13 03:23:47;;;;;;;1.90;0.80;;;19.00;73.60;;;;;;4962780;28;20050;-19
2023/07/13 03:26:19;;;;;;;2.70;1.00;;;19.00;73.60;;;;;;4964118;28;20117;-20
2023/07/13 03:28:46;;;;;;;1.90;0.93;;;19.00;73.90;;;;;;4952592;28;20022;-19
2023/07/13 03:31:18;;;;;;;2.72;1.10;;;19.00;73.70;;;;;;4931493;28;20032;-20
2023/07/13 03:33:43;;;;;;;2.75;1.00;;;19.00;74.00;;;;;;4963483;28;20248;-19
2023/07/13 03:36:18;;;;;;;4.23;1.13;;;19.00;73.80;;;;;;4963565;28;20034;-19
2023/07/13 03:38:48;;;;;;;3.20;1.00;;;19.00;74.10;;;;;;4956714;28;20027;-19
2023/07/13 03:41:15;;;;;;;2.90;1.20;;;19.00;74.00;;;;;;4961974;28;20079;-20
2023/07/13 03:43:41;;;;;;;4.05;0.98;;;19.00;74.00;;;;;;4957102;28;20328;-19
2023/07/13 03:46:07;;;;;;;2.70;1.00;;;19.00;74.10;;;;;;4931416;28;20722;-20
2023/07/13 03:48:32;;;;;;;2.78;1.00;;;19.00;74.10;;;;;;4961702;28;20241;-19
2023/07/13 03:50:58;;;;;;;2.07;1.07;;;19.00;74.40;;;;;;4962749;28;20034;-19
2023/07/13 03:53:24;;;;;;;3.95;1.10;;;19.00;74.50;;;;;;4955023;28;20058;-20
2023/07/13 03:55:49;;;;;;;2.47;1.00;;;19.00;74.40;;;;;;4970489;28;20653;-19
2023/07/13 03:58:30;;;;;;;4.13;1.05;;;19.00;74.50;;;;;;4961503;28;20062;-20
2023/07/13 04:00:57;;;;;;;4.10;1.20;;;19.00;75.00;;;;;;4931122;28;20062;-19
2023/07/13 04:03:23;;;;;;;6.37;1.00;;;19.00;74.60;;;;;;4961983;28;20030;-20
2023/07/13 04:05:49;;;;;;;3.67;1.30;;;19.00;74.60;;;;;;4961230;28;20600;-20
2023/07/13 04:08:14;;;;;;;4.82;1.38;;;19.00;74.80;;;;;;4950689;28;20023;-20
2023/07/13 04:10:40;;;;;;;3.17;1.30;;;19.10;74.80;;;;;;4959953;28;20146;-20
2023/07/13 04:13:06;;;;;;;4.10;1.25;;;19.10;74.90;;;;;;4963144;28;20436;-20
2023/07/13 04:15:33;;;;;;;3.90;1.30;;;19.10;75.00;;;;;;4950338;28;20605;-20
2023/07/13 04:17:59;;;;;;;2.80;1.00;;;19.10;75.00;;;;;;4948326;28;20501;-19
2023/07/13 04:20:25;;;;;;;3.05;1.00;;;19.10;75.10;;;;;;4980573;28;20050;-20
2023/07/13 04:22:53;;;;;;;4.38;1.10;;;19.10;75.20;;;;;;4955115;28;20126;-19
2023/07/13 04:25:19;;;;;;;2.60;1.00;;;19.10;75.10;;;;;;4971322;28;20077;-19
2023/07/13 04:27:45;;;;;;;3.13;0.95;;;19.10;75.20;;;;;;4965341;28;20034;-20
2023/07/13 04:30:10;;;;;;;3.90;1.20;;;19.10;75.20;;;;;;4954982;28;20026;-20
2023/07/13 04:32:36;;;;;;;2.17;1.07;;;19.10;75.30;;;;;;4920526;28;20115;-19
2023/07/13 04:35:02;;;;;;;3.72;1.20;;;19.10;75.30;;;;;;4974413;28;20061;-20
2023/07/13 04:37:29;;;;;;;5.57;1.20;;;19.10;75.40;;;;;;4964074;28;20034;-19
2023/07/13 04:39:55;;;;;;;3.53;1.10;;;19.10;75.40;;;;;;4962385;28;20133;-19
2023/07/13 04:42:20;;;;;;;2.80;0.90;;;19.10;75.40;;;;;;4969766;28;20046;-19
2023/07/13 04:44:50;;;;;;;3.07;1.30;;;19.10;75.40;;;;;;4969596;28;20539;-19
2023/07/13 04:47:16;;;;;;;3.08;1.05;;;19.10;75.70;;;;;;4941053;28;20018;-20
2023/07/13 04:49:42;;;;;;;4.68;1.35;;;19.10;75.70;;;;;;4965340;28;20021;-19
2023/07/13 04:52:08;;;;;;;4.30;1.63;;;19.10;75.70;;;;;;4965134;28;20058;-21
2023/07/13 04:54:34;;;;;;;3.40;1.40;;;19.20;75.70;;;;;;4942200;28;20379;-19
2023/07/13 04:57:00;;;;;;;3.03;1.30;;;19.20;75.70;;;;;;4968614;28;20026;-19
2023/07/13 04:59:27;;;;;;;2.10;1.00;;;19.10;75.80;;;;;;4965036;28;20610;-19
2023/07/13 05:01:53;;;;;;;2.40;1.17;;;19.10;75.90;;;;;;4968933;28;20047;-19
2023/07/13 05:04:19;;;;;;;5.13;1.50;;;19.10;76.00;;;;;;4924955;28;20031;-19
2023/07/13 05:06:44;;;;;;;4.78;1.40;;;19.10;76.10;;;;;;4963585;28;20120;-19
2023/07/13 05:09:12;;;;;;;4.60;1.20;;;19.10;76.10;;;;;;4957242;28;20444;-19
2023/07/13 05:11:38;;;;;;;4.10;1.20;;;19.10;76.10;;;;;;4954374;28;20084;-19
2023/07/13 05:14:04;;;;;;;4.65;1.02;;;19.10;76.40;;;;;;4981218;28;20279;-19
2023/07/13 05:16:29;;;;;;;3.88;1.00;;;19.20;76.50;;;;;;4964929;28;20081;-19
2023/07/13 05:18:55;;;;;;;4.60;1.23;;;19.20;76.50;;;;;;4933127;28;20233;-20
2023/07/13 05:21:21;;;;;;;3.72;1.10;;;19.20;76.50;;;;;;4964736;28;20030;-19
2023/07/13 05:23:47;;;;;;;2.53;1.20;;;19.20;76.60;;;;;;4967737;28;20527;-19
2023/07/13 05:26:12;;;;;;;5.40;1.50;;;19.20;76.60;;;;;;4959767;28;20275;-19
2023/07/13 05:28:39;;;;;;;3.40;1.00;;;19.30;76.80;;;;;;4960345;28;20027;-19
2023/07/13 05:31:06;;;;;;;1.92;1.20;;;19.30;76.70;;;;;;4965828;28;20099;-19
2023/07/13 05:33:33;;;;;;;4.05;1.30;;;19.20;76.80;;;;;;4952125;28;20030;-20
2023/07/13 05:36:00;;;;;;;3.08;1.23;;;19.20;76.90;;;;;;4946471;28;20176;-19
2023/07/13 05:38:26;;;;;;;4.25;1.17;;;19.30;76.90;;;;;;4965402;28;20037;-19
2023/07/13 05:40:55;;;;;;;4.37;1.40;;;19.30;77.00;;;;;;4944619;28;20231;-19
2023/07/13 05:43:21;;;;;;;3.63;1.30;;;19.30;77.10;;;;;;4966817;28;20667;-20
2023/07/13 05:45:46;;;;;;;4.25;1.30;;;19.40;77.20;;;;;;4960752;28;20122;-19
2023/07/13 05:48:12;;;;;;;4.28;1.02;;;19.40;77.20;;;;;;4974254;28;20088;-19
2023/07/13 05:50:38;;;;;;;6.80;1.30;;;19.40;77.20;;;;;;4935648;28;20034;-20
2023/07/13 05:53:04;;;;;;;4.30;1.40;;;19.40;77.30;;;;;;4960462;28;20068;-19
2023/07/13 05:55:30;;;;;;;3.78;1.50;;;19.40;77.30;;;;;;4971087;28;20764;-19
2023/07/13 05:57:57;;;;;;;3.77;1.10;;;19.50;77.40;;;;;;4956777;28;20573;-19
2023/07/13 06:00:24;;;;;;;4.95;1.40;;;19.50;77.50;;;;;;4962589;28;20038;-19
2023/07/13 06:02:50;;;;;;;3.50;1.33;;;19.50;77.50;;;;;;4960254;28;20149;-19
2023/07/13 06:05:16;;;;;;;3.10;1.30;;;19.60;77.60;;;;;;4964567;28;20023;-19
2023/07/13 06:07:42;;;;;;;3.28;1.23;;;19.60;78.10;;;;;;4948630;28;20111;-19
2023/07/13 06:10:08;;;;;;;2.13;1.10;;;19.60;77.70;;;;;;4954211;28;20556;-19
2023/07/13 06:12:34;;;;;;;3.88;1.20;;;19.70;77.80;;;;;;4956301;28;20089;-19
2023/07/13 06:15:00;;;;;;;5.70;1.50;;;19.70;77.90;;;;;;4961456;28;20026;-19
2023/07/13 06:17:25;;;;;;;4.20;1.17;;;19.80;78.00;;;;;;4967178;28;20520;-19
2023/07/13 06:19:51;;;;;;;4.37;1.30;;;19.80;78.00;;;;;;4965413;28;20022;-19
2023/07/13 06:22:17;;;;;;;4.38;1.10;;;19.80;78.00;;;;;;4939429;28;20057;-19
2023/07/13 06:24:43;;;;;;;4.57;1.33;;;19.90;78.00;;;;;;4948997;28;20162;-19
2023/07/13 06:27:08;;;;;;;4.00;1.10;;;19.90;77.90;;;;;;4954193;28;20023;-19
2023/07/13 06:29:34;;;;;;;2.22;1.10;;;19.90;78.00;;;;;;4958804;28;20588;-19
2023/07/13 06:32:01;;;;;;;2.97;1.23;;;20.00;78.10;;;;;;4979641;28;20354;-19
2023/07/13 06:34:26;;;;;;;3.03;1.05;;;20.00;78.10;;;;;;4965115;28;20089;-19
2023/07/13 06:36:52;;;;;;;5.83;1.50;;;20.10;78.10;;;;;;4932977;28;20213;-19
2023/07/13 06:39:18;;;;;;;4.25;1.40;;;20.10;78.10;;;;;;4964829;28;20058;-19
2023/07/13 06:41:44;;;;;;;2.85;1.40;;;20.20;78.10;;;;;;4955024;28;20251;-19
2023/07/13 06:44:09;;;;;;;3.67;1.20;;;20.20;78.20;;;;;;4958885;28;20042;-19
2023/07/13 06:46:35;;;;;;;5.80;1.30;;;20.30;78.40;;;;;;4962317;28;20026;-19
2023/07/13 06:49:01;;;;;;;3.57;1.20;;;20.40;78.40;;;;;;4968945;28;20285;-19
2023/07/13 06:51:27;;;;;;;6.13;1.50;;;20.40;78.10;;;;;;4953638;28;20122;-19
2023/07/13 06:53:52;;;;;;;3.40;1.47;;;20.40;78.10;;;;;;4945193;28;21143;-19
2023/07/13 06:56:18;;;;;;;4.07;1.42;;;20.50;78.10;;;;;;4963762;28;20109;-19
2023/07/13 06:58:44;;;;;;;3.17;1.43;;;20.50;78.10;;;;;;4952330;28;20062;-19
2023/07/13 07:01:10;;;;;;;3.13;1.38;;;20.50;78.10;;;;;;4968037;28;20058;-19
2023/07/13 07:03:36;;;;;;;4.15;1.40;;;20.60;78.10;;;;;;4964286;28;20550;-19
2023/07/13 07:06:18;;;;;;;4.80;1.40;;;20.60;78.10;;;;;;4964759;28;20622;-19
2023/07/13 07:08:45;;;;;;;4.20;1.45;;;20.70;78.10;;;;;;4932152;28;20773;-19
2023/07/13 07:11:25;;;;;;;3.78;1.30;;;20.70;78.10;;;;;;4962091;28;20018;-19
2023/07/13 07:13:54;;;;;;;3.53;1.42;;;20.80;78.20;;;;;;4965946;28;20153;-19
2023/07/13 07:16:20;;;;;;;4.87;1.43;;;20.80;78.50;;;;;;4964965;28;20324;-19
2023/07/13 07:18:46;;;;;;;3.50;1.38;;;20.90;78.50;;;;;;4959171;28;20225;-19
2023/07/13 07:21:13;;;;;;;3.58;1.15;;;21.00;78.30;;;;;;4948980;28;20633;-19
2023/07/13 07:23:38;;;;;;;3.65;1.55;;;21.10;78.20;;;;;;4936554;28;20047;-18
2023/07/13 07:26:04;;;;;;;3.25;1.25;;;21.10;78.20;;;;;;4958504;28;20585;-19
2023/07/13 07:28:30;;;;;;;2.73;1.27;;;21.20;78.40;;;;;;4957639;28;20537;-19
2023/07/13 07:30:57;;;;;;;4.97;1.65;;;21.30;78.50;;;;;;4955144;28;20077;-19
2023/07/13 07:33:24;;;;;;;2.85;1.35;;;21.40;78.40;;;;;;4960799;28;21300;-19
2023/07/13 07:35:50;;;;;;;3.10;1.30;;;21.40;78.40;;;;;;4962127;28;20441;-19
2023/07/13 07:38:16;;;;;;;4.20;1.30;;;21.50;78.60;;;;;;4936284;28;20351;-19
2023/07/13 07:40:42;;;;;;;4.38;1.52;;;21.60;78.60;;;;;;4963333;28;20638;-18
2023/07/13 07:43:09;;;;;;;3.25;1.55;;;21.70;78.80;;;;;;4977367;28;20087;-18
2023/07/13 07:45:37;;;;;;;4.83;1.50;;;21.80;78.70;;;;;;4969717;28;20030;-19
2023/07/13 07:48:03;;;;;;;5.10;1.50;;;22.00;78.70;;;;;;4961939;28;20955;-19
2023/07/13 07:50:29;;;;;;;4.45;1.58;;;22.10;78.50;;;;;;4969577;28;20382;-18
2023/07/13 07:52:58;;;;;;;3.43;1.53;;;22.20;78.30;;;;;;4961892;28;20030;-19
2023/07/13 07:55:28;;;;;;;2.73;1.20;;;22.30;78.00;;;;;;4936723;28;20799;-19
2023/07/13 07:57:56;;;;;;;4.70;1.63;;;22.40;78.10;;;;;;4963001;28;20031;-19
2023/07/13 08:00:22;;;;;;;5.70;1.80;;;22.50;78.10;;;;;;4954938;28;20034;-19
2023/07/13 08:02:48;;;;;;;4.13;1.60;;;22.60;78.50;;;;;;4968861;28;20527;-19
2023/07/13 08:05:14;;;;;;;3.60;1.70;;;22.80;78.60;;;;;;4962052;28;20645;-19
2023/07/13 08:07:40;;;;;;;4.70;1.70;;;23.00;78.50;;;;;;4968844;28;20097;-18
2023/07/13 08:10:07;;;;;;;5.25;1.60;;;23.20;77.70;;;;;;4941628;28;20585;-19
2023/07/13 08:12:37;;;;;;;4.82;1.92;;;23.30;77.70;;;;;;4971508;28;20033;-19
2023/07/13 08:15:04;;;;;;;3.27;1.40;;;23.50;78.10;;;;;;4955176;28;20789;-19
2023/07/13 08:17:31;;;;;;;3.30;1.70;;;23.70;79.60;;;;;;4955367;28;20158;-19
2023/07/13 08:19:56;;;;;;;5.68;1.48;;;24.00;79.40;;;;;;4966550;28;20036;-19
2023/07/13 08:22:22;;;;;;;3.13;1.40;;;24.40;79.50;;;;;;4959788;28;20038;-19
2023/07/13 08:24:55;;;;;;;4.05;1.40;;;24.70;78.90;;;;;;4937578;28;20030;-19
2023/07/13 08:27:21;;;;;;;3.80;1.50;;;25.00;77.30;;;;;;4967822;28;20034;-19
2023/07/13 08:29:48;;;;;;;4.00;1.55;;;25.20;76.30;;;;;;4980395;28;20705;-20
2023/07/13 08:32:14;;;;;;;2.40;1.47;;;25.30;75.00;;;;;;4958284;28;20829;-19
2023/07/13 08:34:40;;;;;;;3.70;1.40;;;25.30;75.20;;;;;;4970083;28;20208;-19
2023/07/13 08:37:06;;;;;;;3.17;1.30;;;25.50;76.10;;;;;;4957720;28;20034;-19
2023/07/13 08:39:33;;;;;;;2.85;1.52;;;25.60;75.50;;;;;;4950018;28;20124;-19
2023/07/13 08:42:35;;;;;;;3.80;1.50;;;25.80;74.60;;;;;;4977575;28;20500;-19
2023/07/13 08:45:22;;;;;;;2.92;1.48;;;25.90;72.10;;;;;;4971216;28;20798;-19
2023/07/13 08:47:53;;;;;;;4.68;1.52;;;26.20;73.40;;;;;;4958563;28;20097;-19
2023/07/13 08:50:24;;;;;;;4.55;1.60;;;26.40;76.30;;;;;;4968467;28;20023;-19
2023/07/13 08:52:50;;;;;;;3.78;1.50;;;26.70;75.70;;;;;;4959368;28;20363;-19
2023/07/13 08:55:20;;;;;;;2.43;1.43;;;26.90;74.50;;;;;;4969099;28;20097;-20
2023/07/13 08:57:53;;;;;;;3.97;1.40;;;27.10;73.10;;;;;;4941327;28;20038;-19
2023/07/13 09:00:19;;;;;;;3.95;1.48;;;27.20;72.60;;;;;;4965404;28;20050;-19
2023/07/13 09:02:58;;;;;;;5.22;1.50;;;27.30;72.00;;;;;;4963192;28;20654;-19
2023/07/13 09:05:31;;;;;;;2.03;1.15;;;27.20;68.60;;;;;;4966188;28;21086;-19
2023/07/13 09:08:14;;;;;;;1.80;1.33;;;27.10;68.20;;;;;;4954214;28;20256;-19
2023/07/13 09:10:57;;;;;;;3.03;1.20;;;26.90;67.70;;;;;;4935885;28;20366;-19
2023/07/13 09:13:48;;;;;;;2.40;1.30;;;26.80;67.20;;;;;;4964323;28;20577;-19
2023/07/13 09:16:14;;;;;;;2.55;1.25;;;26.70;67.10;;;;;;4966033;28;20026;-19
2023/07/13 09:18:50;;;;;;;2.93;1.20;;;26.60;69.20;;;;;;4952512;28;20545;-19
2023/07/13 09:21:25;;;;;;;4.43;1.40;;;26.50;69.20;;;;;;4959810;28;20122;-19
2023/07/13 09:23:59;;;;;;;4.03;1.55;;;26.70;70.20;;;;;;4961344;28;20033;-19
2023/07/13 09:26:29;;;;;;;2.60;1.30;;;26.90;71.60;;;;;;4941335;28;20037;-19
2023/07/13 09:29:10;;;;;;;3.50;1.55;;;27.10;69.50;;;;;;4967280;28;20053;-19
2023/07/13 09:31:45;;;;;;;2.37;1.20;;;27.20;67.90;;;;;;4983258;28;20022;-19
2023/07/13 09:34:12;;;;;;;2.83;1.30;;;27.20;67.50;;;;;;4952744;28;20306;-19
2023/07/13 09:36:38;;;;;;;3.53;1.50;;;27.20;68.90;;;;;;4967127;28;20042;-19
2023/07/13 09:39:10;;;;;;;2.97;1.38;;;27.40;69.50;;;;;;4953399;28;20123;-19
2023/07/13 09:42:07;;;;;;;3.50;1.50;;;27.50;68.60;;;;;;4967260;28;20070;-20
2023/07/13 09:44:55;;;;;;;2.40;1.30;;;27.70;65.70;;;;;;4969198;28;20031;-19
2023/07/13 09:47:29;;;;;;;2.83;1.40;;;28.00;66.40;;;;;;4965810;28;20737;-19
2023/07/13 09:49:58;;;;;;;3.42;1.40;;;28.20;68.40;;;;;;4948632;28;20507;-19
2023/07/13 09:52:25;;;;;;;2.92;1.42;;;28.50;69.30;;;;;;4967325;28;20038;-19
2023/07/13 09:54:58;;;;;;;3.15;1.45;;;28.80;68.90;;;;;;4960165;28;20066;-19
2023/07/13 09:57:27;;;;;;;2.80;1.30;;;29.10;68.80;;;;;;4942629;28;20035;-19
2023/07/13 09:59:56;;;;;;;1.75;1.15;;;29.40;69.10;;;;;;4976628;28;20037;-19
2023/07/13 10:02:33;;;;;;;3.05;1.10;;;29.70;68.10;;;;;;4952493;28;20046;-19
2023/07/13 10:05:13;;;;;;;3.42;1.15;;;29.80;64.50;;;;;;4958693;28;20296;-19
2023/07/13 10:07:43;;;;;;;2.70;1.30;;;29.80;63.80;;;;;;4959247;28;20036;-20
2023/07/13 10:10:22;;;;;;;2.70;1.30;;;29.70;62.50;;;;;;4957874;28;20046;-20
2023/07/13 10:12:50;;;;;;;1.48;1.00;;;29.70;61.70;;;;;;4941951;28;20062;-19
2023/07/13 10:15:22;;;;;;;1.70;1.00;;;29.70;63.50;;;;;;4979652;28;20124;-20
2023/07/13 10:17:49;;;;;;;2.70;1.20;;;29.70;62.70;;;;;;4963921;28;20027;-19
2023/07/13 10:20:14;;;;;;;2.08;1.08;;;29.80;63.50;;;;;;4961711;28;20034;-19
2023/07/13 10:22:58;;;;;;;2.63;1.20;;;29.90;63.60;;;;;;4951925;28;20565;-18
2023/07/13 10:25:28;;;;;;;2.55;1.10;;;29.90;60.10;;;;;;4950501;28;20524;-19
2023/07/13 10:28:13;;;;;;;3.70;1.13;;;30.00;62.10;;;;;;4979839;28;20030;-19
2023/07/13 10:30:42;;;;;;;1.95;1.13;;;30.00;62.40;;;;;;4947321;28;20196;-19
2023/07/13 10:33:13;;;;;;;3.13;1.30;;;30.20;62.90;;;;;;4967212;28;21228;-19
2023/07/13 10:35:42;;;;;;;2.25;1.27;;;30.20;60.60;;;;;;4966000;28;20034;-20
2023/07/13 10:38:17;;;;;;;2.60;1.20;;;30.20;59.90;;;;;;4952235;28;20404;-19
2023/07/13 10:41:01;;;;;;;3.83;1.30;;;30.20;59.70;;;;;;4953851;28;20409;-19
2023/07/13 10:43:39;;;;;;;2.70;1.30;;;30.20;59.70;;;;;;4936364;28;20042;-19
2023/07/13 10:46:08;;;;;;;2.23;1.20;;;30.30;60.50;;;;;;4965119;28;20034;-19
2023/07/13 10:48:36;;;;;;;4.15;1.35;;;30.40;60.30;;;;;;4958864;28;20050;-19
2023/07/13 10:51:06;;;;;;;2.85;1.40;;;30.60;60.80;;;;;;4967708;28;20354;-19
2023/07/13 10:53:37;;;;;;;2.67;1.30;;;30.70;60.00;;;;;;4967035;28;20034;-19
2023/07/13 10:56:25;;;;;;;2.50;1.30;;;30.90;60.40;;;;;;4967818;28;20080;-19
2023/07/13 10:59:02;;;;;;;2.30;1.13;;;31.00;60.20;;;;;;4954257;28;20053;-19
2023/07/13 11:01:40;;;;;;;2.25;1.15;;;31.10;57.50;;;;;;4957610;28;20433;-19
2023/07/13 11:04:13;;;;;;;2.25;1.48;;;31.30;56.70;;;;;;4956695;28;20505;-19
2023/07/13 11:06:49;;;;;;;4.05;1.38;;;31.40;57.70;;;;;;4964214;28;20081;-18
2023/07/13 11:09:37;;;;;;;2.72;1.30;;;31.60;59.00;;;;;;4965799;28;20062;-19
2023/07/13 11:12:26;;;;;;;3.27;1.10;;;31.70;57.20;;;;;;4961942;28;20057;-19
2023/07/13 11:14:54;;;;;;;2.05;1.20;;;31.70;56.00;;;;;;4939009;28;20023;-19
2023/07/13 11:17:32;;;;;;;1.80;1.30;;;31.70;55.10;;;;;;4975281;28;20203;-19
2023/07/13 11:20:13;;;;;;;1.95;1.35;;;31.50;54.10;;;;;;4963475;28;20369;-19
2023/07/13 11:22:51;;;;;;;2.63;1.30;;;31.50;55.00;;;;;;4961568;28;20129;-19
2023/07/13 11:25:28;;;;;;;1.77;1.20;;;31.50;54.70;;;;;;4952630;28;20247;-20
2023/07/13 11:28:12;;;;;;;1.70;0.95;;;31.40;54.80;;;;;;4957537;28;20104;-20
2023/07/13 11:31:01;;;;;;;2.17;1.20;;;31.20;53.10;;;;;;4937407;28;20038;-20
2023/07/13 11:33:39;;;;;;;1.88;1.25;;;31.00;52.70;;;;;;4959376;28;20125;-20
2023/07/13 11:36:21;;;;;;;2.42;1.30;;;30.70;51.90;;;;;;4951123;28;20515;-19
2023/07/13 11:39:01;;;;;;;1.93;1.30;;;30.30;53.10;;;;;;4969473;28;20030;-19
2023/07/13 11:41:38;;;;;;;1.65;1.00;;;29.90;52.00;;;;;;4939141;28;20045;-19
2023/07/13 11:44:24;;;;;;;2.13;1.20;;;29.60;52.70;;;;;;4959499;28;20107;-19
2023/07/13 11:46:53;;;;;;;1.25;0.90;;;29.20;52.40;;;;;;4934291;28;20034;-19
2023/07/13 11:49:26;;;;;;;1.50;1.00;;;29.00;53.90;;;;;;4958229;28;20026;-19
2023/07/13 11:51:56;;;;;;;1.97;1.10;;;28.80;54.10;;;;;;4964993;28;20023;-19
2023/07/13 11:54:30;;;;;;;1.83;1.20;;;28.60;54.80;;;;;;4960654;28;20042;-19
2023/07/13 11:57:01;;;;;;;3.33;1.30;;;28.50;54.70;;;;;;4951813;28;20049;-19
2023/07/13 11:59:29;;;;;;;1.75;1.40;;;28.50;55.50;;;;;;4962307;28;20058;-20
2023/07/13 12:01:56;;;;;;;3.38;1.35;;;28.40;55.70;;;;;;4938433;28;20117;-19
2023/07/13 12:04:32;;;;;;;3.33;1.40;;;28.40;55.80;;;;;;4961844;28;20027;-19
2023/07/13 12:07:08;;;;;;;3.25;1.30;;;28.40;55.10;;;;;;4944534;28;20098;-19
2023/07/13 12:09:36;;;;;;;1.52;1.20;;;28.30;55.10;;;;;;4962934;28;20023;-19
2023/07/13 12:12:02;;;;;;;3.30;1.20;;;28.20;55.40;;;;;;4953608;28;20505;-19
2023/07/13 12:14:28;;;;;;;2.17;1.10;;;28.10;55.30;;;;;;4959377;28;20471;-19
2023/07/13 12:16:56;;;;;;;2.60;1.20;;;27.90;55.00;;;;;;4947063;28;20038;-19
2023/07/13 12:19:29;;;;;;;2.83;1.02;;;27.60;55.70;;;;;;4939001;28;20039;-19
2023/07/13 12:21:59;;;;;;;1.15;0.90;;;27.20;55.90;;;;;;4962226;28;20046;-19
2023/07/13 12:24:26;;;;;;;2.97;1.00;;;26.80;55.50;;;;;;4956859;28;20037;-20
2023/07/13 12:27:02;;;;;;;1.87;0.90;;;26.30;55.80;;;;;;4962677;28;20031;-21
2023/07/13 12:29:28;;;;;;;1.63;1.00;;;25.70;56.60;;;;;;4972403;28;20462;-21
2023/07/13 12:31:55;;;;;;;2.40;1.13;;;25.30;57.00;;;;;;4981056;28;20046;-19
2023/07/13 12:34:26;;;;;;;2.28;1.10;;;24.90;57.60;;;;;;4932742;28;20047;-19
2023/07/13 12:36:55;;;;;;;1.85;0.90;;;24.40;58.50;;;;;;4962327;28;20041;-20
2023/07/13 12:39:45;;;;;;;1.60;0.90;;;24.00;59.50;;;;;;4949393;28;20034;-20
2023/07/13 12:42:32;;;;;;;1.00;0.88;;;23.60;61.80;;;;;;4963299;28;20129;-19
2023/07/13 12:44:58;;;;;;;2.00;1.00;;;23.20;62.40;;;;;;4953554;28;20026;-19
2023/07/13 12:47:24;;;;;;;1.67;1.00;;;23.00;61.40;;;;;;4965432;28;20829;-20
2023/07/13 12:49:58;;;;;;;2.00;0.93;;;22.80;62.20;;;;;;4931527;28;20072;-21
2023/07/13 12:52:35;;;;;;;1.27;0.88;;;22.70;63.60;;;;;;4967649;28;21232;-21
2023/07/13 12:55:16;;;;;;;2.10;1.00;;;22.60;64.10;;;;;;4954661;28;20035;-19
2023/07/13 12:57:44;;;;;;;0.98;0.80;;;22.60;65.40;;;;;;4969027;28;20030;-19